Time;durP1;ratioP1;P1;durP2;ratioP2;P2;SDS_P1;SDS_P2;PMS_P1;PMS_P2;Temp;Humidity;BMP_temperature;BMP_pressure;BME280_temperature;BME280_humidity;BME280_pressure;Samples;Min_cycle;Max_cycle;Signal;HPM_P1;HPM_P2
2022/10/25 00:00:15;;;;;;;3.87;1.87;;;;;;;-142.65;92.19;50172.78;5114796;28;20549;-71
2022/10/25 00:02:41;;;;;;;3.53;1.50;;;;;;;-142.65;91.85;50172.78;5114836;28;20186;-70
2022/10/25 00:05:13;;;;;;;6.63;2.33;;;;;;;-142.65;92.04;50170.78;5114794;28;20610;-70
2022/10/25 00:07:39;;;;;;;13.70;2.20;;;;;;;;;;5114818;28;20184;-70
2022/10/25 00:10:06;;;;;;;5.73;2.60;;;;;;;-142.65;92.20;50168.78;5114419;28;20195;-70
2022/10/25 00:12:33;;;;;;;5.87;1.87;;;;;;;;;;5114230;28;20216;-70
2022/10/25 00:15:00;;;;;;;4.20;1.70;;;;;;;-142.65;91.97;50174.75;5114282;28;20569;-70
2022/10/25 00:17:26;;;;;;;1.83;1.60;;;;;;;-142.65;92.00;50172.78;5114889;28;20185;-70
2022/10/25 00:19:53;;;;;;;2.10;2.00;;;;;;;-142.65;91.92;50168.78;5114266;28;20178;-70
2022/10/25 00:22:19;;;;;;;3.90;1.90;;;;;;;-142.65;91.78;50168.78;5114205;28;20197;-70
2022/10/25 00:24:45;;;;;;;7.70;2.70;;;;;;;-142.65;91.95;50118.97;5114180;28;20193;-70
2022/10/25 00:27:12;;;;;;;2.97;1.53;;;;;;;-142.65;92.01;50170.78;5114416;28;20200;-70
2022/10/25 00:29:38;;;;;;;8.23;1.97;;;;;;;-142.65;91.65;50170.78;5114131;28;20678;-70
2022/10/25 00:32:05;;;;;;;3.10;2.30;;;;;;;-142.65;91.41;50170.78;5113942;28;20216;-70
2022/10/25 00:34:31;;;;;;;1.97;1.80;;;;;;;;;;5114044;28;20200;-70
2022/10/25 00:36:57;;;;;;;3.37;1.80;;;;;;;-142.65;91.39;50170.78;5114062;28;20178;-70
2022/10/25 00:39:24;;;;;;;2.73;1.87;;;;;;;-142.65;91.49;50168.78;5096227;28;20188;-70
2022/10/25 00:41:50;;;;;;;2.03;1.93;;;;;;;-142.65;91.63;50170.78;5113895;28;20193;-70
2022/10/25 00:44:35;;;;;;;3.87;2.00;;;;;;;-142.65;91.14;50162.81;5114206;28;20196;-70
2022/10/25 00:47:03;;;;;;;3.43;1.70;;;;;;;;;;5114158;28;20177;-70
2022/10/25 00:49:30;;;;;;;9.53;2.17;;;;;;;-142.65;91.08;50172.78;5113814;28;20677;-70
2022/10/25 00:52:01;;;;;;;3.97;2.03;;;;;;;-142.65;90.99;50170.78;5113713;28;20234;-70
2022/10/25 00:54:29;;;;;;;2.60;1.70;;;;;;;;;;5114142;28;20179;-70
2022/10/25 00:56:59;;;;;;;2.23;1.73;;;;;;;-142.65;91.08;50162.81;5113759;28;20557;-70
2022/10/25 00:59:26;;;;;;;8.33;2.53;;;;;;;;;;5114030;28;20173;-70
2022/10/25 01:01:54;;;;;;;3.33;1.93;;;;;;;-142.65;91.26;50168.78;5113918;28;20574;-70
2022/10/25 01:04:25;;;;;;;3.57;2.17;;;;;;;-142.65;91.03;50164.81;5114187;28;20181;-70
2022/10/25 01:06:52;;;;;;;2.37;2.17;;;;;;;-142.65;91.00;50164.81;5113961;28;20178;-70
2022/10/25 01:09:22;;;;;;;6.13;2.10;;;;;;;-142.65;91.05;50170.78;5113621;28;20196;-70
2022/10/25 01:11:49;;;;;;;3.00;1.67;;;;;;;-142.65;91.11;50162.81;5113521;28;20219;-70
2022/10/25 01:14:16;;;;;;;3.80;1.97;;;;;;;;;;5113444;28;20199;-70
2022/10/25 01:17:19;;;;;;;2.13;2.00;;;;;;;-142.65;91.11;50162.81;5113842;28;20185;-70
2022/10/25 01:20:01;;;;;;;1.87;1.70;;;;;;;;;;5113857;28;20173;-70
2022/10/25 01:22:46;;;;;;;5.37;2.03;;;;;;;-142.65;91.27;50172.78;5113570;28;20254;-70
2022/10/25 01:25:48;;;;;;;12.20;2.40;;;;;;;-142.65;91.44;50162.81;5095869;28;20590;-70
2022/10/25 01:28:29;;;;;;;5.50;2.10;;;;;;;-142.65;91.54;50164.81;5113505;28;20180;-70
2022/10/25 01:31:10;;;;;;;6.40;2.60;;;;;;;-142.65;90.92;50168.78;5113666;28;20215;-70
2022/10/25 01:33:47;;;;;;;7.23;2.77;;;;;;;;;;5113743;28;20181;-70
2022/10/25 01:36:13;;;;;;;4.80;1.70;;;;;;;;;;5113703;28;20180;-70
2022/10/25 01:38:47;;;;;;;3.13;1.90;;;;;;;-142.65;91.22;50168.78;5114166;28;20264;-70
2022/10/25 01:41:46;;;;;;;4.20;2.63;;;;;;;-142.65;90.73;50168.78;5113309;28;20212;-70
2022/10/25 01:44:18;;;;;;;8.37;2.33;;;;;;;;;;5113349;28;20184;-70
2022/10/25 01:47:01;;;;;;;3.43;2.23;;;;;;;-142.65;90.65;50168.78;5113903;28;20512;-70
2022/10/25 01:49:38;;;;;;;5.03;2.37;;;;;;;-142.65;90.62;50164.81;5113866;28;20169;-70
2022/10/25 01:52:04;;;;;;;3.70;2.67;;;;;;;-142.65;90.79;50162.81;5113936;28;20212;-70
2022/10/25 01:54:30;;;;;;;3.03;2.20;;;;;;;-142.65;90.87;50168.78;5113490;28;20547;-70
2022/10/25 01:57:03;;;;;;;9.03;2.20;;;;;;;;;;5113203;28;20189;-70
2022/10/25 01:59:47;;;;;;;7.37;2.97;;;;;;;-142.65;91.25;50160.81;5113205;28;20170;-70
2022/10/25 02:02:22;;;;;;;1.90;1.80;;;;;;;-142.65;91.18;50170.78;5114279;28;20201;-70
2022/10/25 02:05:07;;;;;;;5.37;2.20;;;;;;;;;;5116922;28;20187;-70
2022/10/25 02:07:40;;;;;;;2.40;2.30;;;;;;;-142.65;90.88;50170.78;5116871;28;20178;-70
2022/10/25 02:10:08;;;;;;;3.47;2.13;;;;;;;;;;5116832;28;20173;-70
2022/10/25 02:12:50;;;;;;;2.07;1.87;;;;;;;-142.65;91.00;50164.81;5098548;28;20205;-70
2022/10/25 02:15:39;;;;;;;2.53;1.87;;;;;;;-142.65;91.22;50174.75;5116709;28;20200;-70
2022/10/25 02:18:14;;;;;;;2.77;1.77;;;;;;;-142.65;91.46;50162.81;5117240;28;20173;-70
2022/10/25 02:20:44;;;;;;;5.07;2.27;;;;;;;-142.65;91.22;50168.78;5116793;28;20219;-70
2022/10/25 02:23:13;;;;;;;12.20;2.63;;;;;;;-142.65;91.03;50170.78;5116855;28;20177;-70
2022/10/25 02:25:41;;;;;;;2.20;2.10;;;;;;;;;;5116482;28;20189;-70
2022/10/25 02:28:10;;;;;;;5.07;2.13;;;;;;;;;;5116484;28;20270;-70
2022/10/25 02:30:38;;;;;;;2.60;2.33;;;;;;;;;;5116588;28;20213;-70
2022/10/25 02:33:05;;;;;;;4.83;2.63;;;;;;;;;;5116868;28;20205;-70
2022/10/25 02:35:32;;;;;;;7.53;2.40;;;;;;;-142.65;90.98;50164.81;5116612;28;20541;-70
2022/10/25 02:37:58;;;;;;;5.97;2.30;;;;;;;-142.65;90.92;50118.97;5116544;28;20193;-70
2022/10/25 02:40:25;;;;;;;2.53;2.33;;;;;;;;;;5116204;28;20530;-71
2022/10/25 02:42:51;;;;;;;3.20;2.30;;;;;;;-142.65;91.03;50170.78;5116178;28;20196;-70
2022/10/25 02:45:17;;;;;;;5.33;2.63;;;;;;;-142.65;90.74;50174.75;5116119;28;20186;-70
2022/10/25 02:47:44;;;;;;;6.10;2.30;;;;;;;-142.65;90.74;50170.78;5116343;28;20189;-70
2022/10/25 02:50:10;;;;;;;3.60;2.43;;;;;;;-142.65;90.97;50164.81;5116314;28;20198;-70
2022/10/25 02:52:37;;;;;;;11.50;2.37;;;;;;;-142.65;90.86;50164.81;5115822;28;20219;-70
2022/10/25 02:55:04;;;;;;;7.40;2.30;;;;;;;-142.65;90.82;50168.78;5116228;28;20199;-70
2022/10/25 02:57:35;;;;;;;4.00;2.60;;;;;;;-142.65;91.05;50170.78;5116191;28;20587;-70
2022/10/25 03:00:05;;;;;;;4.03;2.23;;;;;;;-142.65;90.95;50168.78;5116129;28;20203;-70
2022/10/25 03:02:31;;;;;;;2.63;2.37;;;;;;;;;;5115751;28;20213;-70
2022/10/25 03:04:57;;;;;;;8.93;2.43;;;;;;;-142.65;90.75;50162.81;5116008;28;20190;-69
2022/10/25 03:07:24;;;;;;;6.13;2.00;;;;;;;-142.65;90.97;50162.81;5115957;28;20189;-69
2022/10/25 03:09:50;;;;;;;7.00;2.20;;;;;;;-142.65;90.73;50168.78;5115623;28;20200;-69
2022/10/25 03:12:16;;;;;;;2.70;2.50;;;;;;;-142.65;91.09;50170.78;5115447;28;20698;-70
2022/10/25 03:14:43;;;;;;;4.20;2.13;;;;;;;-142.65;90.38;50168.78;5114559;28;20193;-69
2022/10/25 03:17:09;;;;;;;2.20;2.10;;;;;;;-142.65;90.98;50168.78;5115510;28;20192;-69
2022/10/25 03:19:35;;;;;;;1.77;1.67;;;;;;;;;;5115752;28;20186;-69
2022/10/25 03:22:02;;;;;;;6.13;1.83;;;;;;;-142.65;90.76;50164.81;5115311;28;20201;-70
2022/10/25 03:24:28;;;;;;;9.90;2.27;;;;;;;-142.65;90.95;50168.78;5115360;28;20200;-69
2022/10/25 03:26:54;;;;;;;3.67;2.37;;;;;;;-142.65;90.83;50174.75;5115556;28;20193;-69
2022/10/25 03:29:21;;;;;;;3.07;2.13;;;;;;;;;;5115797;28;20196;-69
2022/10/25 03:31:47;;;;;;;6.00;2.80;;;;;;;-142.65;90.73;50164.81;5115338;28;20213;-70
2022/10/25 03:34:13;;;;;;;7.70;2.50;;;;;;;-142.65;91.03;50162.81;5115666;28;20670;-69
2022/10/25 03:36:40;;;;;;;4.37;3.17;;;;;;;;;;5115113;28;20194;-69
2022/10/25 03:39:06;;;;;;;7.80;2.87;;;;;;;;;;5115376;28;20185;-69
2022/10/25 03:41:32;;;;;;;3.40;3.10;;;;;;;-142.65;90.41;50168.78;5114905;28;20201;-70
2022/10/25 03:43:58;;;;;;;7.40;2.80;;;;;;;-142.65;90.49;50164.81;5114963;28;20229;-70
2022/10/25 03:46:25;;;;;;;7.07;2.87;;;;;;;;;;5115155;28;20197;-70
2022/10/25 03:48:51;;;;;;;13.23;3.10;;;;;;;-142.65;90.29;50164.81;5114837;28;20182;-70
2022/10/25 03:51:17;;;;;;;3.93;2.40;;;;;;;;;;5115295;28;20243;-70
2022/10/25 03:53:44;;;;;;;5.97;2.70;;;;;;;;;;5114680;28;20209;-70
2022/10/25 03:56:10;;;;;;;4.10;2.83;;;;;;;-142.65;91.27;50170.78;5114979;28;20194;-69
2022/10/25 03:58:36;;;;;;;7.03;2.53;;;;;;;;;;5114674;28;20193;-69
2022/10/25 04:01:08;;;;;;;3.10;2.33;;;;;;;-142.65;91.95;50174.75;5114529;28;20216;-70
2022/10/25 04:03:35;;;;;;;5.43;2.80;;;;;;;-142.65;91.87;50174.75;5114876;28;20202;-69
2022/10/25 04:06:01;;;;;;;9.17;2.47;;;;;;;;;;5114805;28;20186;-69
2022/10/25 04:08:28;;;;;;;4.57;2.67;;;;;;;;;;5115046;28;20189;-69
2022/10/25 04:10:54;;;;;;;3.90;2.80;;;;;;;-142.65;92.21;50170.78;5114346;28;20690;-70
2022/10/25 04:13:20;;;;;;;2.83;2.63;;;;;;;-142.65;91.77;50164.81;5114178;28;20220;-69
2022/10/25 04:15:47;;;;;;;5.00;2.40;;;;;;;-142.65;91.33;50164.81;5114438;28;20208;-69
2022/10/25 04:18:13;;;;;;;3.93;3.57;;;;;;;;;;5114861;28;20192;-69
2022/10/25 04:20:39;;;;;;;4.40;3.10;;;;;;;;;;5114524;28;20219;-70
2022/10/25 04:23:05;;;;;;;4.80;2.90;;;;;;;-142.65;91.33;50170.78;5114257;28;20651;-70
2022/10/25 04:25:32;;;;;;;6.93;2.63;;;;;;;;;;5113973;28;20188;-69
2022/10/25 04:27:59;;;;;;;3.43;3.03;;;;;;;-142.65;91.51;50168.78;5114434;28;20174;-70
2022/10/25 04:30:25;;;;;;;9.37;2.90;;;;;;;-142.65;91.58;50172.78;5114834;28;20192;-70
2022/10/25 04:32:51;;;;;;;4.93;3.33;;;;;;;;;;5114257;28;20204;-69
2022/10/25 04:35:18;;;;;;;3.70;3.10;;;;;;;;;;5113992;28;20566;-69
2022/10/25 04:37:44;;;;;;;5.73;3.33;;;;;;;-142.65;91.30;50168.78;5114227;28;20544;-69
2022/10/25 04:40:10;;;;;;;3.80;2.70;;;;;;;;;;5113969;28;20204;-69
2022/10/25 04:42:37;;;;;;;4.50;3.13;;;;;;;;;;5113882;28;20698;-70
2022/10/25 04:45:03;;;;;;;6.27;3.43;;;;;;;-142.65;91.59;50170.78;5114178;28;20200;-70
2022/10/25 04:47:31;;;;;;;8.93;3.27;;;;;;;-142.65;91.57;50168.78;5114397;28;20189;-69
2022/10/25 04:49:57;;;;;;;5.40;3.23;;;;;;;;;;5113879;28;20185;-69
2022/10/25 04:52:24;;;;;;;13.67;3.20;;;;;;;-142.65;91.71;50170.78;5113807;28;20212;-70
2022/10/25 04:54:50;;;;;;;2.53;2.43;;;;;;;-142.65;91.36;50168.78;5114118;28;20275;-69
2022/10/25 04:57:16;;;;;;;5.13;3.40;;;;;;;;;;5113758;28;20189;-69
2022/10/25 04:59:42;;;;;;;5.97;3.47;;;;;;;-142.65;90.80;50178.75;5113691;28;20186;-69
2022/10/25 05:02:09;;;;;;;4.30;3.83;;;;;;;-142.65;91.01;50162.81;5113627;28;20208;-69
2022/10/25 05:04:36;;;;;;;7.43;3.43;;;;;;;-142.65;90.88;50168.78;5113567;28;20550;-69
2022/10/25 05:07:02;;;;;;;5.47;2.80;;;;;;;-142.65;91.25;50174.75;5114172;28;20180;-69
2022/10/25 05:09:29;;;;;;;4.10;2.63;;;;;;;-142.65;91.11;50162.81;5114192;28;20189;-69
2022/10/25 05:11:55;;;;;;;2.63;2.53;;;;;;;;;;5113412;28;20205;-69
2022/10/25 05:14:21;;;;;;;10.00;2.67;;;;;;;;;;5113472;28;20189;-69
2022/10/25 05:16:47;;;;;;;11.03;3.27;;;;;;;;;;5113486;28;20195;-69
2022/10/25 05:19:14;;;;;;;4.33;3.10;;;;;;;-142.65;90.89;50162.81;5113520;28;20193;-69
2022/10/25 05:21:40;;;;;;;5.97;3.30;;;;;;;-142.65;91.12;50168.78;5113740;28;20213;-69
2022/10/25 05:24:06;;;;;;;6.97;4.07;;;;;;;-142.65;90.99;50170.78;5113753;28;20185;-69
2022/10/25 05:26:33;;;;;;;5.87;3.80;;;;;;;-142.65;91.03;50170.78;5114009;28;20183;-70
2022/10/25 05:28:59;;;;;;;3.63;3.53;;;;;;;-142.65;90.90;50168.78;5113367;28;20203;-69
2022/10/25 05:31:27;;;;;;;5.80;3.43;;;;;;;;;;5113498;28;20205;-69
2022/10/25 05:33:59;;;;;;;11.43;3.03;;;;;;;-142.65;91.29;50170.78;5113295;28;20567;-69
2022/10/25 05:36:29;;;;;;;4.00;3.87;;;;;;;-142.65;91.34;50170.78;5113946;28;20181;-69
2022/10/25 05:38:55;;;;;;;6.83;2.53;;;;;;;;;;5117144;28;20174;-69
2022/10/25 05:41:21;;;;;;;6.73;3.17;;;;;;;;;;5117555;28;20205;-69
2022/10/25 05:43:48;;;;;;;2.93;2.83;;;;;;;-142.65;91.60;50170.78;5117830;28;20192;-69
2022/10/25 05:46:17;;;;;;;9.30;3.70;;;;;;;-142.65;91.71;50170.78;5117235;28;20534;-69
2022/10/25 05:48:43;;;;;;;4.30;3.60;;;;;;;;;;5117055;28;20181;-69
2022/10/25 05:51:18;;;;;;;8.63;3.70;;;;;;;;;;5117597;28;20209;-69
2022/10/25 05:54:02;;;;;;;6.53;3.10;;;;;;;-142.65;91.36;50168.78;5117304;28;20238;-69
2022/10/25 05:56:31;;;;;;;3.30;2.93;;;;;;;-142.65;91.81;50174.75;5117039;28;20193;-69
2022/10/25 05:59:00;;;;;;;6.17;3.10;;;;;;;;;;5117029;28;20185;-69
2022/10/25 06:01:26;;;;;;;8.77;3.00;;;;;;;-142.65;91.59;50170.78;5116848;28;20212;-69
2022/10/25 06:03:54;;;;;;;4.30;3.07;;;;;;;-142.65;91.95;50162.81;5117447;28;20519;-69
2022/10/25 06:06:21;;;;;;;6.40;3.40;;;;;;;-142.65;91.97;50162.81;5116970;28;20522;-69
2022/10/25 06:08:48;;;;;;;10.03;3.40;;;;;;;-142.65;92.02;50164.81;5117066;28;20548;-69
2022/10/25 06:11:18;;;;;;;7.73;3.50;;;;;;;-142.65;91.84;50170.78;5116985;28;20213;-69
2022/10/25 06:13:45;;;;;;;13.83;3.80;;;;;;;-142.65;92.02;50164.81;5116638;28;20209;-69
2022/10/25 06:16:14;;;;;;;7.07;3.40;;;;;;;-142.65;91.71;50170.78;5116694;28;20189;-69
2022/10/25 06:18:41;;;;;;;8.97;3.20;;;;;;;-142.65;91.44;50164.81;5116551;28;20204;-69
2022/10/25 06:21:15;;;;;;;5.10;2.93;;;;;;;-142.65;91.68;50162.81;5116738;28;20205;-69
2022/10/25 06:23:42;;;;;;;3.03;2.93;;;;;;;;;;5116828;28;20180;-69
2022/10/25 06:26:14;;;;;;;3.20;3.03;;;;;;;-142.65;91.82;50164.81;5116553;28;20194;-69
2022/10/25 06:28:42;;;;;;;6.57;3.80;;;;;;;-142.65;91.60;50172.78;5116684;28;20551;-69
2022/10/25 06:31:10;;;;;;;3.23;3.13;;;;;;;-142.65;91.62;50170.78;5116252;28;20695;-69
2022/10/25 06:33:37;;;;;;;6.00;3.70;;;;;;;-142.65;91.37;50174.75;5116307;28;20204;-69
2022/10/25 06:36:06;;;;;;;3.63;3.53;;;;;;;-142.65;91.54;50162.81;5116321;28;20683;-69
2022/10/25 06:38:33;;;;;;;6.63;3.03;;;;;;;-142.65;91.52;50168.78;5116501;28;20566;-69
2022/10/25 06:41:00;;;;;;;10.23;3.30;;;;;;;;;;5116495;28;20205;-69
2022/10/25 06:43:26;;;;;;;5.90;3.77;;;;;;;;;;5116182;28;20173;-69
2022/10/25 06:45:53;;;;;;;4.50;3.63;;;;;;;;;;5116131;28;20196;-69
2022/10/25 06:48:19;;;;;;;9.40;3.90;;;;;;;-142.65;91.22;50164.81;5116509;28;20184;-69
2022/10/25 06:50:46;;;;;;;3.20;2.90;;;;;;;;;;5116136;28;20216;-69
2022/10/25 06:53:17;;;;;;;11.40;4.00;;;;;;;-142.65;91.32;50168.78;5116170;28;20193;-69
2022/10/25 06:55:45;;;;;;;6.10;3.57;;;;;;;;;;5116160;28;20203;-69
2022/10/25 06:58:12;;;;;;;4.97;3.33;;;;;;;-142.65;91.73;50164.81;5115870;28;20185;-69
2022/10/25 07:00:38;;;;;;;4.10;3.73;;;;;;;-142.65;91.53;50162.81;5116058;28;20212;-69
2022/10/25 07:03:04;;;;;;;8.63;3.20;;;;;;;-142.65;91.48;50168.78;5116029;28;20670;-69
2022/10/25 07:05:31;;;;;;;3.83;3.53;;;;;;;;;;5115652;28;20203;-69
2022/10/25 07:07:57;;;;;;;6.77;3.50;;;;;;;;;;5115598;28;20197;-69
2022/10/25 07:10:23;;;;;;;4.87;4.00;;;;;;;-142.65;91.30;50168.78;5115532;28;20189;-69
2022/10/25 07:12:50;;;;;;;3.93;3.80;;;;;;;-142.65;91.38;50168.78;5115461;28;20250;-69
2022/10/25 07:15:16;;;;;;;4.33;3.90;;;;;;;-142.65;91.13;50168.78;5115750;28;20185;-69
2022/10/25 07:17:42;;;;;;;5.27;4.47;;;;;;;-142.65;90.58;50178.75;5115492;28;20185;-69
2022/10/25 07:20:09;;;;;;;3.50;3.27;;;;;;;-142.65;90.80;50170.78;5115437;28;20272;-69
2022/10/25 07:22:36;;;;;;;7.30;3.67;;;;;;;-142.65;90.58;50170.78;5115849;28;20209;-69
2022/10/25 07:25:02;;;;;;;7.90;4.03;;;;;;;-142.65;90.36;50164.81;5115364;28;20185;-69
2022/10/25 07:27:30;;;;;;;4.00;3.53;;;;;;;-142.65;90.12;50170.78;5115278;28;20200;-69
2022/10/25 07:29:57;;;;;;;8.13;3.87;;;;;;;-142.65;90.28;50168.78;5115226;28;20551;-69
2022/10/25 07:32:23;;;;;;;6.10;3.77;;;;;;;-142.65;90.88;50170.78;5115162;28;20686;-69
2022/10/25 07:34:50;;;;;;;7.33;3.90;;;;;;;-142.65;91.15;50168.78;5115706;28;20199;-69
2022/10/25 07:37:16;;;;;;;16.83;5.03;;;;;;;-142.65;90.82;50168.78;5115018;28;20200;-69
2022/10/25 07:39:42;;;;;;;8.97;5.63;;;;;;;-142.65;90.63;50168.78;5115589;28;20189;-69
2022/10/25 07:42:09;;;;;;;5.17;4.67;;;;;;;;;;5114932;28;20209;-69
2022/10/25 07:44:35;;;;;;;17.77;5.20;;;;;;;-142.65;90.68;50168.78;5115263;28;20173;-69
2022/10/25 07:47:01;;;;;;;7.83;4.60;;;;;;;-142.65;90.76;50164.81;5114885;28;20196;-69
2022/10/25 07:49:28;;;;;;;5.53;4.40;;;;;;;-142.65;90.73;50162.81;5114851;28;20189;-69
2022/10/25 07:51:54;;;;;;;10.37;4.67;;;;;;;-142.65;90.87;50164.81;5114991;28;20220;-69
2022/10/25 07:54:20;;;;;;;4.87;4.03;;;;;;;;;;5114673;28;20215;-69
2022/10/25 07:56:47;;;;;;;5.60;4.20;;;;;;;-142.65;90.57;50168.78;5114702;28;20186;-69
2022/10/25 07:59:13;;;;;;;10.70;4.90;;;;;;;-142.65;90.77;50164.81;5114577;28;20201;-69
2022/10/25 08:01:39;;;;;;;16.90;5.30;;;;;;;-142.65;90.63;50164.81;5114189;28;20213;-69
2022/10/25 08:04:06;;;;;;;5.67;5.37;;;;;;;-142.65;90.27;50170.78;5114720;28;20177;-68
2022/10/25 08:06:34;;;;;;;10.23;4.77;;;;;;;-142.65;90.57;50162.81;5114561;28;20185;-68
2022/10/25 08:09:01;;;;;;;8.23;5.37;;;;;;;-142.65;90.74;50172.78;5114747;28;20193;-68
2022/10/25 08:11:40;;;;;;;10.13;5.13;;;;;;;;;;5114753;28;20278;-69
2022/10/25 08:14:06;;;;;;;5.60;5.20;;;;;;;-142.65;90.43;50164.81;5114209;28;20687;-69
2022/10/25 08:16:33;;;;;;;5.23;4.93;;;;;;;-142.65;90.55;50162.81;5114344;28;20596;-69
2022/10/25 08:18:59;;;;;;;5.90;5.50;;;;;;;-142.65;90.31;50170.78;5114312;28;20189;-69
2022/10/25 08:21:25;;;;;;;5.70;5.00;;;;;;;-142.65;90.42;50164.81;5114477;28;20212;-69
2022/10/25 08:23:52;;;;;;;8.90;5.90;;;;;;;-142.65;89.74;50168.78;5114323;28;20663;-69
2022/10/25 08:26:23;;;;;;;5.33;4.97;;;;;;;-142.65;89.84;50164.81;5114202;28;20177;-69
2022/10/25 08:28:50;;;;;;;10.77;4.63;;;;;;;-142.65;90.54;50170.78;5114497;28;20181;-69
2022/10/25 08:31:16;;;;;;;5.70;5.27;;;;;;;-142.65;90.52;50168.78;5114145;28;20296;-69
2022/10/25 08:33:44;;;;;;;6.97;5.27;;;;;;;-142.65;90.59;50168.78;5095744;28;20209;-69
2022/10/25 08:36:10;;;;;;;8.87;4.60;;;;;;;-142.65;89.88;50164.81;5079063;28;20192;-69
2022/10/25 08:38:37;;;;;;;5.27;4.83;;;;;;;-142.65;90.51;50168.78;5114007;28;20187;-69
2022/10/25 08:41:14;;;;;;;9.13;5.33;;;;;;;-142.65;89.67;50170.78;5096365;28;20215;-69
2022/10/25 08:43:59;;;;;;;5.17;4.87;;;;;;;;;;5114545;28;20169;-69
2022/10/25 08:46:37;;;;;;;7.30;4.77;;;;;;;;;;5114236;28;20176;-69
2022/10/25 08:49:18;;;;;;;6.97;5.10;;;;;;;-142.65;90.17;50170.78;5114217;28;20184;-69
2022/10/25 08:51:46;;;;;;;4.93;4.57;;;;;;;;;;5114367;28;20203;-69
2022/10/25 08:54:22;;;;;;;11.83;5.47;;;;;;;-142.65;89.68;50172.78;5114239;28;20201;-69
2022/10/25 08:57:00;;;;;;;7.27;5.23;;;;;;;-142.65;88.67;50168.78;5114175;28;20191;-69
2022/10/25 08:59:44;;;;;;;6.50;5.30;;;;;;;;;;5114057;28;20645;-69
2022/10/25 09:02:16;;;;;;;6.07;4.53;;;;;;;-142.65;89.25;50168.78;5114035;28;20220;-69
2022/10/25 09:04:43;;;;;;;4.67;4.30;;;;;;;-142.65;88.66;50172.78;5113912;28;20161;-69
2022/10/25 09:07:30;;;;;;;5.97;5.27;;;;;;;-142.65;88.84;50170.78;5113654;28;20184;-69
2022/10/25 09:10:08;;;;;;;5.40;5.07;;;;;;;-142.65;88.79;50168.78;5113670;28;20184;-69
2022/10/25 09:12:38;;;;;;;14.07;6.00;;;;;;;;;;5114879;28;20215;-69
2022/10/25 09:15:04;;;;;;;9.27;4.63;;;;;;;;;;5118090;28;20573;-69
2022/10/25 09:17:42;;;;;;;4.73;4.63;;;;;;;-142.65;88.04;50164.81;5117863;28;20199;-69
2022/10/25 09:20:32;;;;;;;4.73;4.43;;;;;;;-142.65;88.00;50170.78;5117809;28;20539;-69
2022/10/25 09:23:18;;;;;;;10.17;4.60;;;;;;;-142.65;87.34;50168.78;5117989;28;20193;-69
2022/10/25 09:25:52;;;;;;;5.33;4.93;;;;;;;;;;5117701;28;20259;-69
2022/10/25 09:28:31;;;;;;;5.90;4.53;;;;;;;-142.65;87.35;50162.81;5117885;28;20181;-69
2022/10/25 09:30:58;;;;;;;13.57;4.73;;;;;;;;;;5117798;28;20223;-69
2022/10/25 09:33:29;;;;;;;5.97;3.97;;;;;;;;;;5117694;28;20211;-69
2022/10/25 09:35:57;;;;;;;4.57;4.17;;;;;;;-142.65;87.01;50164.81;5118032;28;20524;-68
2022/10/25 09:38:33;;;;;;;14.03;4.10;;;;;;;;;;5117698;28;20188;-68
2022/10/25 09:41:15;;;;;;;13.93;4.90;;;;;;;-142.65;86.49;50117.00;5117327;28;20213;-69
2022/10/25 09:43:59;;;;;;;14.97;4.33;;;;;;;-142.65;86.06;50164.81;5117681;28;20638;-69
2022/10/25 09:46:41;;;;;;;7.40;4.37;;;;;;;-142.65;86.23;50162.81;5117295;28;20185;-69
2022/10/25 09:49:46;;;;;;;7.73;4.57;;;;;;;-142.65;86.40;50162.81;5117557;28;20261;-69
2022/10/25 09:52:33;;;;;;;7.47;4.73;;;;;;;-142.65;86.36;50162.81;5117432;28;20691;-69
2022/10/25 09:55:19;;;;;;;9.10;5.27;;;;;;;;;;5117391;28;20205;-69
2022/10/25 09:57:45;;;;;;;5.30;4.30;;;;;;;-142.65;87.06;50162.81;5117320;28;20196;-69
2022/10/25 10:00:13;;;;;;;6.83;3.87;;;;;;;-142.65;86.81;50164.81;5117315;28;20212;-69
2022/10/25 10:02:40;;;;;;;3.83;3.60;;;;;;;-142.65;87.42;50170.78;5116951;28;20623;-69
2022/10/25 10:05:18;;;;;;;5.27;3.90;;;;;;;-142.65;86.79;50172.78;5116990;28;20177;-69
2022/10/25 10:07:47;;;;;;;4.40;4.00;;;;;;;-142.65;87.28;50162.81;5117255;28;20538;-69
2022/10/25 10:10:25;;;;;;;6.27;3.80;;;;;;;-142.65;87.17;50162.81;5116812;28;20670;-69
2022/10/25 10:13:10;;;;;;;5.83;4.27;;;;;;;-142.65;85.60;50174.75;5116668;28;20173;-69
2022/10/25 10:15:52;;;;;;;5.87;3.80;;;;;;;-142.65;85.01;50164.81;5117056;28;20187;-69
2022/10/25 10:18:33;;;;;;;5.10;3.63;;;;;;;-142.65;85.44;50162.81;5116981;28;20173;-69
2022/10/25 10:21:01;;;;;;;6.93;2.73;;;;;;;-142.65;85.40;50170.78;5116856;28;20573;-69
2022/10/25 10:23:28;;;;;;;5.30;3.27;;;;;;;;;;5116108;28;20178;-69
2022/10/25 10:25:55;;;;;;;6.77;4.70;;;;;;;-142.65;85.60;50164.81;5116776;28;20181;-69
2022/10/25 10:28:22;;;;;;;8.87;4.30;;;;;;;-142.65;85.35;50162.81;5116635;28;20177;-68
2022/10/25 10:30:52;;;;;;;7.60;4.50;;;;;;;;;;5116669;28;20220;-69
2022/10/25 10:33:19;;;;;;;12.80;3.97;;;;;;;-142.65;83.98;50164.81;5116788;28;20196;-69
2022/10/25 10:35:45;;;;;;;15.07;4.23;;;;;;;-142.65;83.69;50164.81;5116362;28;20186;-68
2022/10/25 10:38:28;;;;;;;3.73;3.50;;;;;;;-142.65;83.34;50164.81;5116298;28;20189;-68
2022/10/25 10:41:12;;;;;;;7.47;3.37;;;;;;;;;;5116397;28;20209;-69
2022/10/25 10:43:39;;;;;;;6.00;3.40;;;;;;;-142.65;83.21;50164.81;5116137;28;20177;-69
2022/10/25 10:46:15;;;;;;;4.67;3.20;;;;;;;;;;5116114;28;20190;-69
2022/10/25 10:48:43;;;;;;;5.40;2.97;;;;;;;;;;5116687;28;20536;-68
2022/10/25 10:51:12;;;;;;;3.30;3.20;;;;;;;;;;5115982;28;20201;-69
2022/10/25 10:54:11;;;;;;;3.70;3.50;;;;;;;-142.65;82.39;50162.81;5116517;28;20197;-69
2022/10/25 10:56:38;;;;;;;5.03;3.77;;;;;;;-142.65;82.40;50162.81;5116243;28;20174;-69
2022/10/25 10:59:04;;;;;;;8.47;3.67;;;;;;;-142.65;82.38;50168.78;5115925;28;20190;-69
2022/10/25 11:01:32;;;;;;;3.70;3.10;;;;;;;;;;5115756;28;20216;-69
2022/10/25 11:03:59;;;;;;;7.70;4.27;;;;;;;-142.65;83.13;50170.78;5116067;28;20264;-69
2022/10/25 11:06:34;;;;;;;6.43;3.37;;;;;;;-142.65;82.01;50170.78;5116559;28;20616;-69
2022/10/25 11:09:18;;;;;;;3.43;3.13;;;;;;;-142.65;81.86;50168.78;5115703;28;20184;-69
2022/10/25 11:12:02;;;;;;;3.07;2.93;;;;;;;-142.65;81.28;50164.81;5115816;28;20212;-69
2022/10/25 11:14:28;;;;;;;4.40;3.43;;;;;;;-142.65;80.71;50164.81;5115563;28;20208;-69
2022/10/25 11:17:00;;;;;;;5.40;2.87;;;;;;;-142.65;80.72;50170.78;5115435;28;20655;-69
2022/10/25 11:19:41;;;;;;;3.40;3.13;;;;;;;-142.65;80.72;50162.81;5115867;28;20531;-69
2022/10/25 11:22:14;;;;;;;4.50;2.53;;;;;;;;;;5115410;28;20220;-69
2022/10/25 11:24:49;;;;;;;15.83;2.90;;;;;;;;;;5115659;28;20180;-69
2022/10/25 11:27:15;;;;;;;3.43;2.73;;;;;;;;;;5115616;28;20173;-69
2022/10/25 11:30:08;;;;;;;5.60;3.60;;;;;;;-142.65;81.94;50118.97;5115295;28;20200;-69
2022/10/25 11:32:50;;;;;;;5.27;2.77;;;;;;;-142.65;82.21;50168.78;5115109;28;20209;-69
2022/10/25 11:35:25;;;;;;;4.83;2.77;;;;;;;-142.65;82.10;50164.81;5115071;28;20193;-69
2022/10/25 11:38:01;;;;;;;3.77;2.93;;;;;;;-142.65;81.42;50168.78;5115479;28;20177;-69
2022/10/25 11:40:31;;;;;;;4.03;2.43;;;;;;;-142.65;80.46;50174.75;5114967;28;20187;-69
2022/10/25 11:43:32;;;;;;;4.07;2.20;;;;;;;-142.65;79.41;50168.78;5115317;28;20189;-69
2022/10/25 11:46:07;;;;;;;9.83;3.00;;;;;;;;;;5115271;28;20195;-69
2022/10/25 11:49:21;;;;;;;6.43;2.60;;;;;;;-142.65;78.13;50162.81;5115201;28;20188;-69
2022/10/25 11:51:50;;;;;;;2.77;2.60;;;;;;;;;;5106386;28;20224;-69
2022/10/25 11:54:16;;;;;;;2.27;2.27;;;;;;;;;;5114711;28;20201;-69
2022/10/25 11:57:28;;;;;;;2.70;2.60;;;;;;;-142.65;78.73;50162.81;5114772;28;20197;-69
2022/10/25 12:00:11;;;;;;;3.13;3.03;;;;;;;-142.65;78.96;50162.81;5076366;28;20208;-69
2022/10/25 12:03:00;;;;;;;3.93;3.07;;;;;;;-142.65;79.30;50162.81;5114650;28;20201;-69
2022/10/25 12:05:34;;;;;;;9.80;2.73;;;;;;;-142.65;80.59;50162.81;5114584;28;20182;-69
2022/10/25 12:08:16;;;;;;;9.10;3.73;;;;;;;;;;5114861;28;20191;-69
2022/10/25 12:10:46;;;;;;;5.97;3.87;;;;;;;;;;5115086;28;20216;-69
2022/10/25 12:13:19;;;;;;;3.77;3.67;;;;;;;-142.65;80.31;50164.81;5114849;28;20184;-69
2022/10/25 12:15:50;;;;;;;2.97;2.70;;;;;;;;;;5114637;28;20193;-68
2022/10/25 12:18:35;;;;;;;3.60;3.47;;;;;;;;;;5114266;28;20670;-68
2022/10/25 12:21:03;;;;;;;3.70;3.37;;;;;;;-142.65;79.50;50170.78;5114837;28;20205;-69
2022/10/25 12:23:33;;;;;;;3.77;3.57;;;;;;;;;;5114183;28;20181;-68